Time;durP1;ratioP1;P1;durP2;ratioP2;P2;SDS_P1;SDS_P2;PMS_P1;PMS_P2;Temp;Humidity;BMP_temperature;BMP_pressure;BME280_temperature;BME280_humidity;BME280_pressure;Samples;Min_cycle;Max_cycle;Signal;HPM_P1;HPM_P2
2020/12/09 00:00:11;;;;;;;2.20;2.00;;;21.20;67.40;;;;;;1487296;95;21259;-33
2020/12/09 00:02:40;;;;;;;3.55;1.80;;;21.20;67.50;;;;;;1483656;95;21362;-33
2020/12/09 00:05:10;;;;;;;2.12;1.92;;;21.20;67.50;;;;;;1487887;95;21369;-33
2020/12/09 00:07:38;;;;;;;2.90;2.00;;;21.20;67.50;;;;;;1484538;95;21323;-33
2020/12/09 00:10:07;;;;;;;2.50;2.10;;;21.20;67.50;;;;;;1489210;95;21787;-34
2020/12/09 00:12:35;;;;;;;3.65;2.27;;;21.20;67.40;;;;;;1473745;96;21281;-34
2020/12/09 00:15:05;;;;;;;2.20;1.82;;;21.20;67.40;;;;;;1488021;95;21266;-34
2020/12/09 00:17:33;;;;;;;2.50;2.20;;;21.20;67.40;;;;;;1484444;95;21602;-33
2020/12/09 00:20:01;;;;;;;3.05;2.27;;;21.20;67.40;;;;;;1487050;95;21744;-33
2020/12/09 00:22:29;;;;;;;3.02;2.17;;;21.20;67.30;;;;;;1483519;95;21503;-33
2020/12/09 00:24:56;;;;;;;2.90;2.27;;;21.20;67.30;;;;;;1482513;95;21158;-33
2020/12/09 00:27:24;;;;;;;2.98;1.80;;;21.20;67.30;;;;;;1487482;94;21214;-32
2020/12/09 00:29:52;;;;;;;3.25;2.10;;;21.20;67.20;;;;;;1463895;95;21151;-33
2020/12/09 00:32:19;;;;;;;2.12;1.95;;;21.10;67.20;;;;;;1486166;95;21295;-33
2020/12/09 00:34:47;;;;;;;3.65;2.08;;;21.10;67.10;;;;;;1490149;95;21241;-33
2020/12/09 00:37:15;;;;;;;3.67;2.02;;;21.10;67.10;;;;;;1456419;96;21229;-32
2020/12/09 00:39:43;;;;;;;1.98;1.80;;;21.10;67.00;;;;;;1483623;95;21213;-32
2020/12/09 00:42:11;;;;;;;2.45;2.08;;;21.10;67.00;;;;;;1487566;95;21849;-32
2020/12/09 00:44:38;;;;;;;3.00;1.98;;;21.10;67.00;;;;;;1455692;96;21672;-33
2020/12/09 00:47:06;;;;;;;3.27;2.08;;;21.10;66.90;;;;;;1486582;95;21425;-34
2020/12/09 00:49:57;;;;;;;2.30;2.08;;;21.10;66.90;;;;;;1484410;95;21203;-31
2020/12/09 00:52:03;;;;;;;1.92;1.77;;;21.10;66.90;;;;;;1476660;95;21357;-32
2020/12/09 00:54:31;;;;;;;2.47;2.12;;;21.10;66.90;;;;;;1483829;95;22340;-33
2020/12/09 00:56:59;;;;;;;2.92;2.17;;;21.10;66.90;;;;;;1470970;95;21264;-32
2020/12/09 00:59:26;;;;;;;2.58;2.25;;;21.10;66.80;;;;;;1484191;94;21759;-32
2020/12/09 01:01:54;;;;;;;2.35;2.10;;;21.10;66.80;;;;;;1484655;94;21219;-31
2020/12/09 01:04:22;;;;;;;2.75;2.02;;;21.10;66.80;;;;;;1483668;95;21289;-32
2020/12/09 01:06:49;;;;;;;3.40;2.10;;;21.10;66.70;;;;;;1479976;95;21190;-34
2020/12/09 01:09:17;;;;;;;2.25;1.85;;;21.10;66.60;;;;;;1483474;96;21691;-32
2020/12/09 01:11:45;;;;;;;2.00;1.80;;;21.00;66.60;;;;;;1481953;95;21220;-34
2020/12/09 01:14:12;;;;;;;2.35;1.90;;;21.00;66.60;;;;;;1483997;95;21419;-34
2020/12/09 01:16:40;;;;;;;4.00;1.75;;;21.00;66.50;;;;;;1485075;95;21636;-34
2020/12/09 01:19:08;;;;;;;3.15;2.35;;;21.00;66.50;;;;;;1484774;94;21252;-31
2020/12/09 01:21:35;;;;;;;2.62;2.08;;;21.00;66.50;;;;;;1484170;94;21327;-31
2020/12/09 01:24:03;;;;;;;3.40;1.90;;;21.00;66.50;;;;;;1483212;95;21315;-35
2020/12/09 01:26:31;;;;;;;3.00;1.98;;;21.00;66.50;;;;;;1483104;95;21202;-34
2020/12/09 01:28:58;;;;;;;2.30;1.98;;;21.00;66.50;;;;;;1466099;95;21248;-31
2020/12/09 01:31:26;;;;;;;3.67;2.20;;;21.00;66.50;;;;;;1484502;95;21236;-32
2020/12/09 01:33:54;;;;;;;3.87;2.37;;;21.00;66.50;;;;;;1481767;95;21367;-32
2020/12/09 01:36:25;;;;;;;3.02;2.30;;;21.00;66.60;;;;;;1484555;95;21216;-33
2020/12/09 01:38:53;;;;;;;3.20;2.17;;;21.00;66.50;;;;;;1483736;96;21228;-33
2020/12/09 01:41:25;;;;;;;2.75;1.98;;;21.00;66.40;;;;;;1485943;94;22151;-32
2020/12/09 01:43:54;;;;;;;2.37;1.98;;;21.00;66.40;;;;;;1483829;94;21291;-32
2020/12/09 01:46:30;;;;;;;3.62;2.50;;;20.90;66.40;;;;;;1482888;95;21841;-32
2020/12/09 01:49:00;;;;;;;2.50;2.30;;;20.90;66.30;;;;;;1468699;95;21205;-34
2020/12/09 01:51:30;;;;;;;2.35;2.10;;;21.00;67.00;;;;;;1483173;95;21296;-32
2020/12/09 01:54:27;;;;;;;2.00;1.80;;;20.90;66.30;;;;;;1484109;95;21756;-32
2020/12/09 01:57:09;;;;;;;3.22;2.37;;;20.90;66.20;;;;;;1452877;92;67766;-34
2020/12/09 01:59:38;;;;;;;2.20;2.00;;;20.90;66.20;;;;;;1471884;96;21341;-34
2020/12/09 02:02:07;;;;;;;3.83;2.17;;;20.90;66.20;;;;;;1457247;96;21776;-34
2020/12/09 02:04:35;;;;;;;2.42;2.05;;;20.90;66.20;;;;;;1453382;96;21153;-31
2020/12/09 02:07:03;;;;;;;2.62;1.95;;;20.90;66.20;;;;;;1468874;95;21340;-31
2020/12/09 02:09:31;;;;;;;2.52;2.08;;;20.90;66.20;;;;;;1468750;96;21251;-31
2020/12/09 02:11:59;;;;;;;1.92;1.60;;;20.90;66.30;;;;;;1468845;95;21752;-33
2020/12/09 02:14:27;;;;;;;2.20;1.62;;;20.90;66.20;;;;;;1468201;96;21317;-32
2020/12/09 02:16:57;;;;;;;4.05;1.80;;;20.90;66.20;;;;;;1466673;96;21779;-32
2020/12/09 02:19:26;;;;;;;2.52;1.92;;;20.90;66.20;;;;;;1467229;95;21197;-32
2020/12/09 02:21:55;;;;;;;2.75;2.00;;;20.90;66.20;;;;;;1466323;96;22227;-33
2020/12/09 02:24:22;;;;;;;3.00;2.50;;;20.90;66.20;;;;;;1451421;96;22383;-32
2020/12/09 02:26:51;;;;;;;4.30;2.27;;;20.90;66.20;;;;;;1466170;96;21255;-31
2020/12/09 02:29:18;;;;;;;1.90;1.75;;;20.90;66.20;;;;;;1446375;96;21310;-33
2020/12/09 02:31:46;;;;;;;1.95;1.70;;;20.90;66.20;;;;;;1467151;96;21864;-32
2020/12/09 02:34:14;;;;;;;3.15;2.12;;;20.90;66.20;;;;;;1468744;96;21284;-31
2020/12/09 02:36:41;;;;;;;2.10;1.90;;;20.90;66.20;;;;;;1475453;95;21209;-33
2020/12/09 02:39:09;;;;;;;2.27;2.05;;;20.90;66.30;;;;;;1474769;95;21302;-34
2020/12/09 02:41:37;;;;;;;2.12;1.82;;;20.80;65.70;;;;;;1471787;96;22006;-32
2020/12/09 02:44:04;;;;;;;2.35;2.00;;;20.90;66.30;;;;;;1454917;96;21226;-34
2020/12/09 02:46:32;;;;;;;2.67;2.02;;;20.80;66.20;;;;;;1467964;96;21225;-32
2020/12/09 02:49:00;;;;;;;1.90;1.72;;;20.90;66.30;;;;;;1461762;96;22015;-33
2020/12/09 02:51:27;;;;;;;2.45;1.87;;;20.90;66.30;;;;;;1470237;96;21386;-33
2020/12/09 02:53:55;;;;;;;2.45;2.00;;;20.90;66.20;;;;;;1468361;95;21241;-33
2020/12/09 02:56:23;;;;;;;4.10;2.22;;;20.90;66.20;;;;;;1474957;95;21453;-31
2020/12/09 02:58:50;;;;;;;3.27;2.40;;;20.90;66.10;;;;;;1474835;95;21809;-34
2020/12/09 03:01:18;;;;;;;2.35;2.15;;;20.90;66.10;;;;;;1467752;95;21308;-33
2020/12/09 03:03:46;;;;;;;1.95;1.80;;;20.90;66.00;;;;;;1464255;96;21224;-32
2020/12/09 03:06:14;;;;;;;2.45;1.95;;;20.90;65.90;;;;;;1473047;96;21213;-34
2020/12/09 03:08:43;;;;;;;3.52;2.08;;;21.00;66.00;;;;;;1451402;96;21259;-32
2020/12/09 03:11:11;;;;;;;2.95;1.95;;;21.00;65.90;;;;;;1470732;95;21181;-33
2020/12/09 03:13:38;;;;;;;2.33;1.98;;;21.00;65.90;;;;;;1470871;95;21208;-32
2020/12/09 03:16:06;;;;;;;4.83;2.12;;;21.00;65.80;;;;;;1431729;97;21815;-32
2020/12/09 03:18:34;;;;;;;2.92;2.10;;;21.00;65.80;;;;;;1468152;96;21209;-32
2020/12/09 03:21:06;;;;;;;2.60;1.75;;;21.00;65.80;;;;;;1467242;96;21276;-33
2020/12/09 03:23:31;;;;;;;3.27;2.45;;;21.00;65.70;;;;;;1468915;96;21192;-32
2020/12/09 03:25:58;;;;;;;2.75;2.20;;;21.10;65.70;;;;;;1471382;96;21261;-32
2020/12/09 03:28:26;;;;;;;2.80;1.95;;;21.10;65.60;;;;;;1467678;96;21213;-34
2020/12/09 03:30:54;;;;;;;2.40;1.60;;;21.10;65.60;;;;;;1466644;96;21327;-33
2020/12/09 03:33:22;;;;;;;2.50;1.92;;;21.10;65.60;;;;;;1450416;96;21302;-32
2020/12/09 03:35:50;;;;;;;3.37;2.00;;;21.10;65.50;;;;;;1464741;96;21786;-33
2020/12/09 03:38:17;;;;;;;2.70;2.02;;;21.10;65.50;;;;;;1466085;96;21738;-32
2020/12/09 03:40:45;;;;;;;2.95;1.95;;;21.10;65.50;;;;;;1451838;96;21370;-34
2020/12/09 03:43:13;;;;;;;2.12;1.92;;;21.10;65.40;;;;;;1470415;96;21275;-32
2020/12/09 03:45:40;;;;;;;2.98;2.02;;;21.20;65.50;;;;;;1467914;96;21188;-33
2020/12/09 03:48:08;;;;;;;2.87;1.90;;;21.20;65.40;;;;;;1451451;96;21272;-33
2020/12/09 03:50:36;;;;;;;3.20;2.12;;;21.20;65.40;;;;;;1463154;96;21382;-32
2020/12/09 03:53:04;;;;;;;3.35;2.33;;;21.20;65.40;;;;;;1458725;96;21206;-33
2020/12/09 03:55:32;;;;;;;2.87;1.92;;;21.20;65.40;;;;;;1460782;96;21726;-32
2020/12/09 03:58:00;;;;;;;13.10;2.47;;;21.20;65.30;;;;;;1467721;96;21310;-33
2020/12/09 04:00:28;;;;;;;3.60;2.20;;;21.20;65.30;;;;;;1437003;96;21769;-32
2020/12/09 04:03:00;;;;;;;2.90;2.10;;;21.20;65.30;;;;;;1462163;96;21330;-33
2020/12/09 04:05:26;;;;;;;2.10;1.90;;;21.20;65.30;;;;;;1463715;96;21219;-32
2020/12/09 04:07:54;;;;;;;2.42;1.80;;;21.20;65.30;;;;;;1454534;96;21248;-32
2020/12/09 04:10:21;;;;;;;3.27;1.98;;;21.20;65.30;;;;;;1461597;96;21360;-32
2020/12/09 04:12:49;;;;;;;2.92;2.00;;;21.20;65.30;;;;;;1473050;96;21201;-32
2020/12/09 04:15:17;;;;;;;2.45;1.70;;;21.20;65.30;;;;;;1468827;96;21272;-33
2020/12/09 04:17:45;;;;;;;2.58;2.10;;;21.20;65.20;;;;;;1469959;96;21209;-33
2020/12/09 04:20:13;;;;;;;2.20;2.00;;;21.20;65.20;;;;;;1449164;97;21308;-32
2020/12/09 04:22:40;;;;;;;2.65;1.92;;;21.30;65.20;;;;;;1466869;96;21184;-33
2020/12/09 04:25:08;;;;;;;2.92;2.02;;;21.20;65.20;;;;;;1460128;96;21759;-32
2020/12/09 04:27:35;;;;;;;3.00;1.90;;;21.20;65.20;;;;;;1462037;96;21248;-32
2020/12/09 04:30:05;;;;;;;2.20;2.00;;;21.20;65.20;;;;;;1471836;96;21285;-33
2020/12/09 04:32:33;;;;;;;2.30;2.10;;;21.20;65.20;;;;;;1451140;96;21137;-33
2020/12/09 04:35:01;;;;;;;2.15;1.85;;;21.20;65.10;;;;;;1463411;96;21252;-34
2020/12/09 04:37:28;;;;;;;3.25;2.25;;;21.20;65.10;;;;;;1462748;96;21596;-33
2020/12/09 04:39:57;;;;;;;4.53;1.90;;;21.30;65.10;;;;;;1452914;96;21307;-32
2020/12/09 04:42:26;;;;;;;2.70;2.12;;;21.30;65.10;;;;;;1466294;96;21795;-33
2020/12/09 04:44:55;;;;;;;3.42;2.47;;;21.30;65.10;;;;;;1467457;96;21251;-32
2020/12/09 04:47:28;;;;;;;3.27;2.20;;;21.30;65.00;;;;;;1465659;96;21200;-33
2020/12/09 04:50:10;;;;;;;3.45;2.27;;;21.30;65.00;;;;;;1472906;96;21811;-33
2020/12/09 04:53:05;;;;;;;3.10;2.22;;;21.30;65.00;;;;;;1464462;96;68032;-32
2020/12/09 04:55:33;;;;;;;2.58;2.10;;;21.30;65.00;;;;;;1494961;91;68749;-35
2020/12/09 04:58:10;;;;;;;4.25;2.58;;;21.30;65.10;;;;;;1472509;95;21229;-34
2020/12/09 05:00:40;;;;;;;2.87;2.33;;;21.20;65.00;;;;;;1477626;94;67225;-32
2020/12/09 05:03:20;;;;;;;2.37;2.17;;;21.30;65.10;;;;;;1466559;95;21246;-32
2020/12/09 05:05:48;;;;;;;3.12;2.05;;;21.30;65.00;;;;;;1477492;95;68191;-32
2020/12/09 05:08:21;;;;;;;2.65;2.20;;;21.20;65.00;;;;;;1483236;95;22180;-33
2020/12/09 05:10:51;;;;;;;2.62;2.12;;;21.30;65.00;;;;;;1464578;95;21243;-34
2020/12/09 05:13:25;;;;;;;2.27;2.08;;;21.30;65.00;;;;;;1488909;95;21342;-33
2020/12/09 05:15:57;;;;;;;3.62;2.08;;;21.30;65.40;;;;;;1488314;95;21246;-33
2020/12/09 05:18:40;;;;;;;2.58;2.17;;;21.30;64.90;;;;;;1469392;95;21225;-32
2020/12/09 05:21:13;;;;;;;2.10;1.90;;;21.30;64.90;;;;;;1456251;96;68354;-33
2020/12/09 05:23:50;;;;;;;2.60;2.12;;;21.30;64.90;;;;;;1454704;96;21728;-34
2020/12/09 05:26:23;;;;;;;2.62;2.15;;;21.30;64.90;;;;;;1466648;96;21743;-33
2020/12/09 05:29:12;;;;;;;2.47;2.00;;;21.30;64.80;;;;;;1451912;96;21154;-32
2020/12/09 05:31:43;;;;;;;2.60;2.20;;;21.30;64.80;;;;;;1489716;91;67561;-36
2020/12/09 05:34:30;;;;;;;2.75;2.50;;;21.30;64.80;;;;;;1491896;94;21268;-34
2020/12/09 05:37:03;;;;;;;2.20;2.00;;;21.30;64.80;;;;;;1466301;95;68027;-31
2020/12/09 05:39:32;;;;;;;2.35;2.10;;;21.30;64.80;;;;;;1461910;96;21226;-34
2020/12/09 05:42:02;;;;;;;2.17;1.95;;;21.30;65.40;;;;;;1465726;96;21212;-34
2020/12/09 05:44:30;;;;;;;2.50;2.02;;;21.30;64.80;;;;;;1455174;96;21206;-32
2020/12/09 05:47:03;;;;;;;4.40;2.50;;;21.30;64.80;;;;;;1462985;96;21793;-34
2020/12/09 05:49:36;;;;;;;5.45;2.33;;;21.40;64.80;;;;;;1469978;96;21797;-31
2020/12/09 05:52:11;;;;;;;3.45;2.40;;;21.30;64.70;;;;;;1464465;96;21267;-31
2020/12/09 05:54:39;;;;;;;;;;;21.30;64.70;;;;;;1452370;97;21321;-31
2020/12/09 05:57:09;;;;;;;2.47;2.20;;;21.30;64.70;;;;;;1469424;96;20207;-31
2020/12/09 05:59:42;;;;;;;3.37;2.47;;;21.30;64.80;;;;;;1466333;96;21693;-31
2020/12/09 06:02:18;;;;;;;3.17;2.50;;;21.40;64.80;;;;;;1458056;97;21470;-31
2020/12/09 06:05:00;;;;;;;4.12;2.47;;;21.30;64.70;;;;;;1452708;95;21304;-32
2020/12/09 06:07:30;;;;;;;3.87;2.45;;;21.30;64.80;;;;;;1472681;95;67492;-33
2020/12/09 06:10:17;;;;;;;3.50;2.35;;;21.30;64.70;;;;;;1472415;96;21267;-33
2020/12/09 06:12:58;;;;;;;3.10;1.95;;;21.30;64.70;;;;;;1478600;95;68040;-33
2020/12/09 06:15:28;;;;;;;3.20;2.58;;;21.30;64.70;;;;;;1454138;96;67075;-31
2020/12/09 06:18:13;;;;;;;3.58;2.58;;;21.40;64.80;;;;;;1465888;96;21261;-34
2020/12/09 06:20:42;;;;;;;4.00;2.53;;;21.30;64.70;;;;;;1440739;96;67734;-33
2020/12/09 06:23:15;;;;;;;4.15;2.83;;;21.30;64.70;;;;;;1458876;95;21215;-32
2020/12/09 06:25:44;;;;;;;3.08;2.30;;;21.30;64.60;;;;;;1457550;96;21303;-33
2020/12/09 06:28:13;;;;;;;2.80;2.50;;;21.30;64.70;;;;;;1445127;96;22443;-32
2020/12/09 06:30:41;;;;;;;3.58;2.72;;;21.30;64.70;;;;;;1454120;95;21309;-31
2020/12/09 06:33:10;;;;;;;3.87;2.30;;;21.30;64.70;;;;;;1455536;96;21323;-33
2020/12/09 06:35:38;;;;;;;2.72;2.35;;;21.30;64.60;;;;;;1455735;96;22360;-33
2020/12/09 06:38:11;;;;;;;4.35;2.80;;;21.40;64.70;;;;;;1461855;96;21276;-32
2020/12/09 06:40:59;;;;;;;3.50;2.25;;;21.30;64.60;;;;;;1450486;96;21338;-31
2020/12/09 06:43:27;;;;;;;3.33;2.40;;;21.30;64.60;;;;;;1468199;96;67678;-32
2020/12/09 06:45:54;;;;;;;3.42;2.50;;;21.30;64.60;;;;;;1460460;96;21184;-33
2020/12/09 06:48:24;;;;;;;4.25;2.72;;;21.30;64.60;;;;;;1447215;95;21310;-34
2020/12/09 06:50:51;;;;;;;5.40;3.37;;;;;;;;;;1462736;95;21748;-30
2020/12/09 06:53:20;;;;;;;3.92;3.05;;;21.30;43.30;;;;;;1465856;95;21320;-34
2020/12/09 06:55:50;;;;;;;5.40;2.80;;;21.40;43.70;;;;;;1469424;95;21871;-31
2020/12/09 06:58:31;;;;;;;4.03;3.15;;;21.40;43.60;;;;;;1465659;96;21199;-33
2020/12/09 07:01:03;;;;;;;7.17;3.35;;;21.50;43.60;;;;;;1469224;94;67786;-33
2020/12/09 07:03:36;;;;;;;7.10;4.17;;;21.60;44.10;;;;;;1486705;94;21319;-34
2020/12/09 07:06:07;;;;;;;4.22;2.90;;;21.60;43.30;;;;;;1484110;94;21265;-33
2020/12/09 07:08:38;;;;;;;5.28;3.50;;;21.70;43.50;;;;;;1483713;95;21540;-32
2020/12/09 07:11:06;;;;;;;3.40;3.10;;;21.70;43.40;;;;;;1492605;94;21236;-32
2020/12/09 07:13:33;;;;;;;4.40;3.45;;;21.80;43.30;;;;;;1451083;94;21203;-33
2020/12/09 07:16:01;;;;;;;4.50;3.12;;;21.90;43.00;;;;;;1483698;94;22681;-32
2020/12/09 07:18:29;;;;;;;4.50;3.65;;;22.00;43.20;;;;;;1483113;94;22616;-33
2020/12/09 07:20:58;;;;;;;3.60;3.02;;;22.00;43.10;;;;;;1478752;94;21202;-32
2020/12/09 07:23:26;;;;;;;4.35;3.20;;;22.00;42.70;;;;;;1484126;94;21287;-32
2020/12/09 07:25:59;;;;;;;5.30;3.17;;;22.10;42.80;;;;;;1473047;94;21215;-33
2020/12/09 07:28:33;;;;;;;4.45;3.35;;;22.20;42.60;;;;;;1481001;95;21218;-32
2020/12/09 07:31:10;;;;;;;7.15;3.98;;;22.20;42.80;;;;;;1489918;94;21229;-33
2020/12/09 07:33:38;;;;;;;5.12;3.85;;;22.20;42.60;;;;;;1469304;96;21427;-32
2020/12/09 07:36:08;;;;;;;3.62;3.22;;;22.30;43.00;;;;;;1494866;94;21243;-33
2020/12/09 07:38:35;;;;;;;3.67;3.37;;;22.30;42.50;;;;;;1491363;94;21871;-32
2020/12/09 07:41:04;;;;;;;6.10;3.72;;;22.30;42.80;;;;;;1495758;95;21311;-33
2020/12/09 07:43:31;;;;;;;3.95;3.00;;;22.40;42.30;;;;;;1491582;94;21151;-32
2020/12/09 07:46:04;;;;;;;4.37;3.30;;;22.40;42.20;;;;;;1466797;94;21261;-31
2020/12/09 07:48:33;;;;;;;4.53;3.17;;;22.50;42.90;;;;;;1489077;94;21723;-33
2020/12/09 07:51:01;;;;;;;5.75;3.35;;;22.50;42.20;;;;;;1490280;94;21192;-32
2020/12/09 07:53:29;;;;;;;4.62;3.20;;;22.50;42.30;;;;;;1479071;93;21282;-32
2020/12/09 07:56:01;;;;;;;4.60;3.60;;;22.50;42.40;;;;;;1483557;94;22546;-34
2020/12/09 07:58:28;;;;;;;5.17;4.25;;;22.60;42.10;;;;;;1490775;94;21300;-33
2020/12/09 08:00:56;;;;;;;4.67;3.83;;;22.60;42.00;;;;;;1486834;94;21183;-36
2020/12/09 08:03:26;;;;;;;5.58;3.98;;;22.60;41.90;;;;;;1474866;94;22170;-32
2020/12/09 08:05:55;;;;;;;5.15;4.03;;;22.70;41.70;;;;;;1485168;93;21218;-32
2020/12/09 08:08:26;;;;;;;5.25;4.00;;;22.70;41.70;;;;;;1489450;93;21263;-34
2020/12/09 08:10:53;;;;;;;24.67;4.20;;;22.70;42.00;;;;;;1490561;93;21253;-33
2020/12/09 08:13:26;;;;;;;6.50;4.10;;;22.70;41.60;;;;;;1444335;95;21227;-32
2020/12/09 08:16:02;;;;;;;4.90;3.20;;;22.70;41.80;;;;;;1473939;95;21322;-31
2020/12/09 08:18:30;;;;;;;5.28;3.72;;;22.80;41.90;;;;;;1486366;94;21612;-32
2020/12/09 08:20:58;;;;;;;4.70;3.90;;;22.80;41.50;;;;;;1487254;94;21356;-31
2020/12/09 08:23:40;;;;;;;4.05;3.37;;;22.80;41.30;;;;;;1483851;94;21316;-32
2020/12/09 08:26:09;;;;;;;4.72;3.47;;;22.80;41.40;;;;;;1465165;95;21733;-31
2020/12/09 08:28:37;;;;;;;5.70;4.30;;;22.80;41.40;;;;;;1479159;94;21223;-31
2020/12/09 08:31:16;;;;;;;10.25;5.00;;;22.80;41.30;;;;;;1495078;94;21267;-33
2020/12/09 08:33:43;;;;;;;7.75;4.80;;;22.70;42.20;;;;;;1468625;95;21619;-31
2020/12/09 08:36:13;;;;;;;6.03;4.97;;;22.80;41.60;;;;;;1489430;94;21515;-32
2020/12/09 08:38:46;;;;;;;10.30;5.62;;;22.80;41.60;;;;;;1484676;94;21563;-32
2020/12/09 08:41:19;;;;;;;10.93;5.67;;;22.80;41.40;;;;;;1467522;95;21225;-33
2020/12/09 08:43:47;;;;;;;7.95;5.58;;;22.80;41.70;;;;;;1486624;94;21199;-33
2020/12/09 08:46:14;;;;;;;9.10;6.40;;;22.90;41.50;;;;;;1472004;96;21270;-33
2020/12/09 08:48:43;;;;;;;19.05;7.45;;;22.90;41.60;;;;;;1480014;95;21691;-33
2020/12/09 08:51:10;;;;;;;9.25;7.20;;;22.80;42.30;;;;;;1483788;94;21211;-33
2020/12/09 08:53:38;;;;;;;9.95;6.37;;;22.90;41.70;;;;;;1470090;96;21211;-33
2020/12/09 08:56:06;;;;;;;10.63;7.25;;;22.90;41.60;;;;;;1494063;94;21676;-31
2020/12/09 08:58:34;;;;;;;8.78;6.60;;;22.90;41.70;;;;;;1491114;94;21829;-34
2020/12/09 09:01:02;;;;;;;13.20;7.55;;;22.90;41.60;;;;;;1487136;95;21222;-32
2020/12/09 09:03:33;;;;;;;9.28;7.03;;;22.90;41.60;;;;;;1487131;94;21203;-33
2020/12/09 09:05:59;;;;;;;8.63;6.80;;;22.90;41.80;;;;;;1464491;96;21213;-32
2020/12/09 09:08:27;;;;;;;10.23;6.97;;;22.90;41.60;;;;;;1443428;96;21376;-34
2020/12/09 09:10:54;;;;;;;10.43;7.10;;;22.90;41.50;;;;;;1460855;96;21751;-35
2020/12/09 09:13:22;;;;;;;10.90;6.55;;;22.90;41.50;;;;;;1432647;96;21318;-32
2020/12/09 09:15:50;;;;;;;11.80;7.90;;;22.90;41.60;;;;;;1449120;96;22364;-33
2020/12/09 09:18:17;;;;;;;13.95;7.15;;;22.90;41.60;;;;;;1452674;96;22548;-34
2020/12/09 09:20:45;;;;;;;9.38;6.62;;;22.90;41.50;;;;;;1443319;97;21299;-32
2020/12/09 09:23:13;;;;;;;11.10;7.65;;;22.90;41.40;;;;;;1454310;97;21266;-31
2020/12/09 09:25:40;;;;;;;11.43;8.10;;;22.90;41.50;;;;;;1454383;97;22654;-32
2020/12/09 09:28:08;;;;;;;11.68;7.80;;;22.90;41.40;;;;;;1436738;98;21278;-31
2020/12/09 09:30:36;;;;;;;10.65;7.30;;;22.90;41.40;;;;;;1447024;96;21391;-33
2020/12/09 09:33:04;;;;;;;12.20;7.87;;;22.90;41.40;;;;;;1455891;95;21239;-32
2020/12/09 09:35:31;;;;;;;12.93;7.25;;;22.90;41.30;;;;;;1456325;96;21271;-33
2020/12/09 09:37:59;;;;;;;8.65;6.50;;;22.90;41.30;;;;;;1458101;96;21315;-30
2020/12/09 09:40:26;;;;;;;10.45;7.78;;;22.90;41.30;;;;;;1437123;97;21397;-32
2020/12/09 09:42:54;;;;;;;9.93;7.83;;;23.00;41.20;;;;;;1455459;96;21650;-31
2020/12/09 09:45:24;;;;;;;12.75;8.10;;;23.00;41.20;;;;;;1452912;96;21652;-35
2020/12/09 09:47:51;;;;;;;12.58;8.30;;;23.00;41.20;;;;;;1448267;97;21236;-35
2020/12/09 09:50:20;;;;;;;12.80;8.13;;;23.00;41.20;;;;;;1447979;96;21253;-31
2020/12/09 09:52:48;;;;;;;10.85;7.95;;;23.00;41.20;;;;;;1427859;97;21365;-34
2020/12/09 09:55:16;;;;;;;16.17;7.55;;;23.00;41.10;;;;;;1453252;96;21240;-32
2020/12/09 09:57:43;;;;;;;13.40;9.40;;;23.00;41.80;;;;;;1468533;95;21188;-34
2020/12/09 10:00:11;;;;;;;13.72;9.08;;;23.00;41.20;;;;;;1436619;97;21651;-34
2020/12/09 10:02:40;;;;;;;15.03;9.30;;;23.00;41.20;;;;;;1452222;96;21330;-32
2020/12/09 10:05:08;;;;;;;11.97;8.85;;;23.00;41.20;;;;;;1437518;97;21232;-32
2020/12/09 10:07:36;;;;;;;13.50;9.28;;;23.00;41.20;;;;;;1439668;97;21217;-34
2020/12/09 10:10:04;;;;;;;14.23;8.80;;;23.00;41.20;;;;;;1443251;97;21239;-37
2020/12/09 10:12:33;;;;;;;13.72;9.25;;;23.00;41.20;;;;;;1454937;94;21330;-34
2020/12/09 10:15:01;;;;;;;12.88;8.98;;;23.00;41.10;;;;;;1486974;94;21345;-35
2020/12/09 10:17:28;;;;;;;15.50;9.78;;;23.00;41.10;;;;;;1481237;94;22003;-33
2020/12/09 10:19:57;;;;;;;13.13;9.23;;;23.00;41.20;;;;;;1475312;94;21220;-31
2020/12/09 10:22:25;;;;;;;14.05;9.65;;;23.10;41.10;;;;;;1503328;93;21372;-31
2020/12/09 10:24:54;;;;;;;13.62;9.48;;;23.00;40.90;;;;;;1487154;94;21678;-32
2020/12/09 10:27:22;;;;;;;13.68;9.30;;;23.10;41.10;;;;;;1464894;95;21278;-33
2020/12/09 10:29:50;;;;;;;13.53;8.90;;;23.00;41.00;;;;;;1486476;94;21799;-33
2020/12/09 10:32:18;;;;;;;11.68;8.70;;;23.00;41.00;;;;;;1487562;94;21779;-34
2020/12/09 10:34:47;;;;;;;16.23;10.43;;;23.10;41.00;;;;;;1483513;94;22313;-32
2020/12/09 10:37:14;;;;;;;12.20;9.28;;;23.00;41.00;;;;;;1479183;95;21263;-32
2020/12/09 10:39:42;;;;;;;16.25;8.98;;;23.10;41.00;;;;;;1484716;95;21321;-34
2020/12/09 10:42:10;;;;;;;13.38;9.65;;;23.00;40.90;;;;;;1491378;95;21736;-31
2020/12/09 10:44:37;;;;;;;14.10;9.55;;;23.00;41.00;;;;;;1470201;94;21211;-32
2020/12/09 10:47:07;;;;;;;16.30;9.28;;;23.00;41.00;;;;;;1484579;94;21262;-32
2020/12/09 10:49:35;;;;;;;15.70;10.35;;;23.00;41.10;;;;;;1470375;94;21247;-31
2020/12/09 10:52:02;;;;;;;13.15;9.13;;;23.00;41.00;;;;;;1469400;94;22242;-33
2020/12/09 10:54:30;;;;;;;13.45;9.70;;;23.10;40.90;;;;;;1492042;94;21289;-32
2020/12/09 10:57:01;;;;;;;13.15;9.33;;;23.10;40.90;;;;;;1489926;94;21234;-31
2020/12/09 10:59:28;;;;;;;12.40;8.93;;;23.00;41.00;;;;;;1489084;93;21425;-33
2020/12/09 11:01:56;;;;;;;14.03;9.75;;;23.10;41.20;;;;;;1489507;94;21832;-32
2020/12/09 11:04:25;;;;;;;13.45;9.18;;;23.00;40.90;;;;;;1489907;94;21206;-32
2020/12/09 11:06:52;;;;;;;17.90;9.48;;;23.00;41.00;;;;;;1487538;94;21211;-32
2020/12/09 11:09:20;;;;;;;11.97;9.13;;;23.10;40.90;;;;;;1468293;95;21279;-32
2020/12/09 11:11:47;;;;;;;13.78;9.95;;;23.10;40.90;;;;;;1476757;95;21288;-33
2020/12/09 11:14:17;;;;;;;14.78;9.58;;;23.00;41.10;;;;;;1490784;94;21159;-33
2020/12/09 11:16:45;;;;;;;13.62;9.90;;;23.00;40.90;;;;;;1468525;94;21694;-33
2020/12/09 11:19:14;;;;;;;13.60;9.45;;;23.00;41.00;;;;;;1486817;94;21216;-32
2020/12/09 11:21:42;;;;;;;13.95;9.63;;;23.00;41.00;;;;;;1488160;94;21685;-32
2020/12/09 11:24:10;;;;;;;13.93;9.63;;;23.00;41.10;;;;;;1453353;95;21777;-33
2020/12/09 11:26:37;;;;;;;12.90;9.13;;;22.90;41.20;;;;;;1484046;94;21243;-33
2020/12/09 11:29:05;;;;;;;13.28;9.35;;;23.00;41.10;;;;;;1468011;94;22419;-34
2020/12/09 11:31:33;;;;;;;13.28;10.13;;;23.00;40.90;;;;;;1486940;94;21431;-34
2020/12/09 11:34:00;;;;;;;13.45;9.45;;;22.90;40.90;;;;;;1496302;94;21195;-33
2020/12/09 11:36:28;;;;;;;14.55;9.88;;;22.90;40.90;;;;;;1488706;94;21813;-32
2020/12/09 11:38:56;;;;;;;13.98;10.32;;;22.80;40.90;;;;;;1485601;94;21210;-33
2020/12/09 11:41:28;;;;;;;15.13;10.95;;;22.80;41.00;;;;;;1483547;93;21295;-33
2020/12/09 11:43:57;;;;;;;14.73;10.23;;;22.80;41.20;;;;;;1479441;94;21236;-33
2020/12/09 11:46:29;;;;;;;14.00;9.75;;;22.80;41.90;;;;;;1484468;93;21267;-33
2020/12/09 11:48:57;;;;;;;13.72;10.35;;;22.80;41.50;;;;;;1489931;94;21232;-32
2020/12/09 11:51:26;;;;;;;17.12;11.28;;;22.90;41.70;;;;;;1468005;95;21350;-33
2020/12/09 11:53:54;;;;;;;17.70;11.63;;;22.90;42.10;;;;;;1478132;95;21291;-30
2020/12/09 11:56:24;;;;;;;17.17;10.55;;;22.90;42.40;;;;;;1452437;97;21236;-31
2020/12/09 11:58:52;;;;;;;30.72;11.80;;;22.90;42.80;;;;;;1489160;95;21239;-32
2020/12/09 12:01:21;;;;;;;17.32;11.15;;;22.90;42.50;;;;;;1482147;95;21206;-33
2020/12/09 12:03:49;;;;;;;19.48;11.53;;;22.90;43.00;;;;;;1464356;94;21851;-34
2020/12/09 12:06:28;;;;;;;23.40;12.07;;;23.00;42.70;;;;;;1481873;94;21140;-32
2020/12/09 12:08:57;;;;;;;17.87;11.43;;;23.00;43.10;;;;;;1461420;95;67215;-32
2020/12/09 12:11:29;;;;;;;21.80;12.25;;;23.00;42.90;;;;;;1459810;96;21246;-35
2020/12/09 12:13:56;;;;;;;17.98;10.63;;;23.00;43.20;;;;;;1461185;96;21223;-33
2020/12/09 12:16:25;;;;;;;20.12;11.63;;;23.00;43.20;;;;;;1440548;97;21663;-32
2020/12/09 12:18:53;;;;;;;25.72;13.13;;;23.00;43.00;;;;;;1460617;96;21268;-34
2020/12/09 12:21:25;;;;;;;20.88;12.10;;;22.90;42.50;;;;;;1445846;97;21483;-33
2020/12/09 12:23:53;;;;;;;18.65;11.15;;;22.90;42.40;;;;;;1462395;96;21742;-33
2020/12/09 12:26:23;;;;;;;17.80;11.75;;;22.90;42.40;;;;;;1437319;96;21248;-32
2020/12/09 12:28:51;;;;;;;23.15;12.82;;;22.90;42.30;;;;;;1459923;96;21311;-32
2020/12/09 12:31:21;;;;;;;25.15;12.37;;;22.90;42.20;;;;;;1458204;96;21243;-32
2020/12/09 12:33:48;;;;;;;22.75;11.60;;;22.80;42.20;;;;;;1460791;96;21197;-33
2020/12/09 12:36:16;;;;;;;18.30;10.88;;;22.80;42.20;;;;;;1446831;97;21308;-32
2020/12/09 12:38:44;;;;;;;18.82;11.48;;;22.90;42.20;;;;;;1462805;96;21612;-31
2020/12/09 12:41:12;;;;;;;17.20;11.20;;;22.90;42.10;;;;;;1459910;96;21225;-31
2020/12/09 12:43:40;;;;;;;20.62;12.65;;;22.90;41.90;;;;;;1449314;97;21262;-32
2020/12/09 12:46:11;;;;;;;19.90;11.65;;;22.90;41.80;;;;;;1466170;96;21266;-33
2020/12/09 12:48:39;;;;;;;18.92;11.57;;;22.90;41.80;;;;;;1425050;96;21357;-32
2020/12/09 12:51:07;;;;;;;20.75;11.50;;;22.90;41.70;;;;;;1452724;96;21912;-35
2020/12/09 12:53:35;;;;;;;18.95;11.08;;;22.90;41.70;;;;;;1440338;96;21247;-33